Time;durP1;ratioP1;P1;durP2;ratioP2;P2;SDS_P1;SDS_P2;PMS_P1;PMS_P2;Temp;Humidity;BMP_temperature;BMP_pressure;BME280_temperature;BME280_humidity;BME280_pressure;Samples;Min_cycle;Max_cycle;Signal;HPM_P1;HPM_P2
2023/01/25 00:00:27;;;;;;;37.42;14.25;;;3.40;85.00;;;;;;5075426;28;20029;-74
2023/01/25 00:02:52;;;;;;;37.38;13.57;;;3.40;84.70;;;;;;5075430;28;20017;-75
2023/01/25 00:05:18;;;;;;;35.50;13.10;;;3.40;84.80;;;;;;5058941;28;20390;-75
2023/01/25 00:07:43;;;;;;;34.60;14.70;;;3.40;84.80;;;;;;5058672;28;20048;-75
2023/01/25 00:10:09;;;;;;;29.20;12.45;;;3.40;84.70;;;;;;5042268;28;20088;-75
2023/01/25 00:12:35;;;;;;;38.72;14.88;;;3.40;84.50;;;;;;5075404;28;20036;-75
2023/01/25 00:15:01;;;;;;;32.17;13.27;;;3.40;84.40;;;;;;5093253;28;20039;-75
2023/01/25 00:17:26;;;;;;;38.40;14.65;;;3.30;83.40;;;;;;5060559;28;20036;-74
2023/01/25 00:19:52;;;;;;;35.90;14.40;;;3.10;83.50;;;;;;5046281;28;20047;-75
2023/01/25 00:22:17;;;;;;;34.28;13.68;;;3.20;83.80;;;;;;5046206;28;20028;-75
2023/01/25 00:24:43;;;;;;;30.40;13.68;;;3.20;84.30;;;;;;5079345;28;20048;-75
2023/01/25 00:27:08;;;;;;;31.90;12.60;;;3.20;84.70;;;;;;5079524;28;20032;-75
2023/01/25 00:29:34;;;;;;;36.63;14.52;;;3.20;84.70;;;;;;5079396;28;20059;-75
2023/01/25 00:32:00;;;;;;;32.88;13.15;;;3.30;84.50;;;;;;5079081;28;20044;-75
2023/01/25 00:34:25;;;;;;;33.45;14.55;;;3.30;84.40;;;;;;5079541;28;20365;-75
2023/01/25 00:37:01;;;;;;;34.22;12.85;;;3.30;84.60;;;;;;5079082;28;20048;-75
2023/01/25 00:39:27;;;;;;;35.22;13.70;;;3.40;84.80;;;;;;5096849;28;20133;-75
2023/01/25 00:41:53;;;;;;;32.45;13.00;;;3.40;84.60;;;;;;5062444;28;20032;-75
2023/01/25 00:44:19;;;;;;;33.45;12.50;;;3.40;84.50;;;;;;5096696;28;20020;-75
2023/01/25 00:46:45;;;;;;;31.60;12.70;;;3.40;84.40;;;;;;5096787;28;20032;-75
2023/01/25 00:49:23;;;;;;;35.03;12.65;;;3.40;84.30;;;;;;5096611;28;20024;-74
2023/01/25 00:51:49;;;;;;;36.25;13.80;;;3.40;84.20;;;;;;5078798;28;20054;-75
2023/01/25 00:54:15;;;;;;;34.03;13.27;;;3.40;84.20;;;;;;5096497;28;20084;-74
2023/01/25 00:56:41;;;;;;;33.78;12.65;;;3.40;84.30;;;;;;5045695;28;20036;-75
2023/01/25 00:59:06;;;;;;;30.83;13.55;;;3.40;84.40;;;;;;5078843;28;20032;-75
2023/01/25 01:01:33;;;;;;;40.72;15.50;;;3.50;84.10;;;;;;5096379;28;20032;-75
2023/01/25 01:03:59;;;;;;;36.40;14.38;;;3.40;83.60;;;;;;5045399;28;20028;-75
2023/01/25 01:06:24;;;;;;;38.35;14.60;;;3.30;82.80;;;;;;5096266;28;20039;-75
2023/01/25 01:08:50;;;;;;;36.83;15.00;;;3.30;83.60;;;;;;5096298;28;20040;-75
2023/01/25 01:11:15;;;;;;;38.42;14.35;;;3.30;84.00;;;;;;5061787;28;20029;-75
2023/01/25 01:13:41;;;;;;;35.20;13.75;;;3.30;83.80;;;;;;5078576;28;20069;-75
2023/01/25 01:16:12;;;;;;;37.72;14.93;;;3.30;84.00;;;;;;5045243;28;20545;-75
2023/01/25 01:18:40;;;;;;;35.22;13.63;;;3.30;84.10;;;;;;5096138;28;20021;-75
2023/01/25 01:21:09;;;;;;;36.95;14.63;;;3.40;84.20;;;;;;5078319;28;20028;-75
2023/01/25 01:23:35;;;;;;;37.28;13.98;;;3.40;84.10;;;;;;5096001;28;20027;-75
2023/01/25 01:26:02;;;;;;;37.10;14.52;;;3.40;83.80;;;;;;5078186;28;20017;-75
2023/01/25 01:28:29;;;;;;;34.13;13.82;;;3.40;83.90;;;;;;5061390;28;20186;-75
2023/01/25 01:31:04;;;;;;;36.08;13.23;;;3.50;83.90;;;;;;5078143;28;20028;-75
2023/01/25 01:33:30;;;;;;;38.58;13.60;;;3.50;83.80;;;;;;5094774;28;20056;-75
2023/01/25 01:35:56;;;;;;;37.80;14.55;;;3.50;83.80;;;;;;5094763;28;20088;-75
2023/01/25 01:38:22;;;;;;;38.78;13.82;;;3.50;83.70;;;;;;5076781;28;20088;-75
2023/01/25 01:40:48;;;;;;;38.10;14.27;;;3.50;83.50;;;;;;5076733;28;20024;-74
2023/01/25 01:43:22;;;;;;;37.38;14.50;;;3.50;83.60;;;;;;5076788;28;20021;-75
2023/01/25 01:45:48;;;;;;;41.60;14.60;;;3.50;83.70;;;;;;5094523;28;20046;-74
2023/01/25 01:48:22;;;;;;;40.28;14.80;;;3.50;83.70;;;;;;5076621;28;20032;-75
2023/01/25 01:50:51;;;;;;;37.10;14.25;;;3.50;83.70;;;;;;5094526;28;20067;-74
2023/01/25 01:53:18;;;;;;;37.13;15.13;;;3.50;83.40;;;;;;5094355;28;20028;-75
2023/01/25 01:55:44;;;;;;;40.47;15.90;;;3.50;83.30;;;;;;5060089;28;20074;-75
2023/01/25 01:58:10;;;;;;;42.90;16.15;;;3.40;83.30;;;;;;5094226;28;20033;-75
2023/01/25 02:00:39;;;;;;;38.17;15.07;;;3.40;84.30;;;;;;5076535;28;20028;-74
2023/01/25 02:03:05;;;;;;;45.97;16.67;;;3.40;83.50;;;;;;5076701;28;20013;-74
2023/01/25 02:06:04;;;;;;;46.75;17.05;;;3.30;82.90;;;;;;5059998;28;20029;-75
2023/01/25 02:08:32;;;;;;;43.45;16.48;;;3.30;82.70;;;;;;5076227;28;20032;-75
2023/01/25 02:10:59;;;;;;;51.03;18.60;;;3.10;82.30;;;;;;5094102;28;20039;-74
2023/01/25 02:13:25;;;;;;;42.47;16.00;;;3.00;83.10;;;;;;5076368;28;20045;-75
2023/01/25 02:15:52;;;;;;;42.47;15.02;;;3.00;83.70;;;;;;5059621;28;20047;-75
2023/01/25 02:18:18;;;;;;;37.33;14.50;;;3.10;84.00;;;;;;5059578;28;20025;-75
2023/01/25 02:20:56;;;;;;;43.50;15.05;;;3.10;84.10;;;;;;5059688;28;20032;-75
2023/01/25 02:23:33;;;;;;;44.45;15.13;;;3.20;84.10;;;;;;5093952;28;20043;-75
2023/01/25 02:26:04;;;;;;;42.55;15.45;;;3.20;84.10;;;;;;5076207;28;20040;-75
2023/01/25 02:28:45;;;;;;;42.63;15.80;;;3.20;83.70;;;;;;5059423;28;20046;-75
2023/01/25 02:31:11;;;;;;;43.15;15.48;;;3.20;83.50;;;;;;5093834;28;20054;-75
2023/01/25 02:33:37;;;;;;;40.75;15.55;;;3.20;83.70;;;;;;5021329;28;1104538;-75
2023/01/25 02:36:05;;;;;;;43.13;14.35;;;3.20;83.90;;;;;;5060208;28;20090;-74
2023/01/25 02:38:34;;;;;;;41.38;15.65;;;3.20;84.00;;;;;;5076753;28;20028;-74
2023/01/25 02:41:17;;;;;;;42.78;15.48;;;3.30;84.10;;;;;;5075871;28;20016;-75
2023/01/25 02:43:43;;;;;;;44.45;14.77;;;3.30;84.10;;;;;;5076827;28;20046;-75
2023/01/25 02:46:20;;;;;;;54.72;18.40;;;3.30;83.80;;;;;;5094380;28;20025;-75
2023/01/25 02:48:45;;;;;;;50.67;18.58;;;3.30;83.50;;;;;;5076625;28;20021;-74
2023/01/25 02:51:11;;;;;;;49.83;17.63;;;3.10;82.70;;;;;;5043375;28;20102;-75
2023/01/25 02:53:37;;;;;;;50.05;18.05;;;3.10;83.30;;;;;;5094363;28;20036;-75
2023/01/25 02:56:03;;;;;;;49.55;19.08;;;3.00;83.60;;;;;;5043354;28;20024;-75
2023/01/25 02:58:29;;;;;;;41.22;15.43;;;3.00;83.70;;;;;;5076297;28;20101;-75
2023/01/25 03:00:56;;;;;;;56.10;17.67;;;3.00;83.50;;;;;;5059666;28;20024;-75
2023/01/25 03:03:22;;;;;;;46.15;15.77;;;2.80;83.50;;;;;;5076428;28;20044;-74
2023/01/25 03:05:47;;;;;;;44.28;16.58;;;2.80;83.90;;;;;;5094021;28;20492;-75
2023/01/25 03:08:13;;;;;;;55.22;17.85;;;2.80;84.10;;;;;;5059733;28;20029;-74
2023/01/25 03:10:39;;;;;;;47.63;16.75;;;2.80;84.30;;;;;;5093873;28;20044;-75
2023/01/25 03:13:04;;;;;;;46.38;16.35;;;2.80;84.10;;;;;;5059604;28;20036;-75
2023/01/25 03:15:30;;;;;;;52.92;18.77;;;2.80;84.10;;;;;;5076182;28;20032;-75
2023/01/25 03:17:56;;;;;;;44.72;16.23;;;2.80;84.30;;;;;;5076008;28;20096;-75
2023/01/25 03:20:22;;;;;;;55.58;18.13;;;2.90;84.60;;;;;;5076195;28;20102;-75
2023/01/25 03:22:47;;;;;;;53.00;18.23;;;2.90;84.70;;;;;;5059490;28;20020;-75
2023/01/25 03:25:13;;;;;;;51.13;17.40;;;3.00;84.80;;;;;;5059356;28;20021;-75
2023/01/25 03:27:38;;;;;;;50.08;17.65;;;3.00;84.40;;;;;;5076192;28;20096;-75
2023/01/25 03:30:05;;;;;;;54.25;18.42;;;3.00;84.50;;;;;;5093631;28;20046;-75
2023/01/25 03:32:31;;;;;;;55.72;20.20;;;3.10;84.60;;;;;;5093303;28;20045;-75
2023/01/25 03:34:57;;;;;;;62.90;19.52;;;3.10;83.50;;;;;;5075888;28;20089;-75
2023/01/25 03:37:28;;;;;;;54.17;18.73;;;3.00;83.70;;;;;;5059488;28;20027;-75
2023/01/25 03:39:54;;;;;;;49.58;16.48;;;3.00;84.30;;;;;;5075797;28;20036;-74
2023/01/25 03:42:20;;;;;;;54.05;18.95;;;3.00;84.30;;;;;;5075924;28;20032;-75
2023/01/25 03:44:46;;;;;;;52.92;17.80;;;2.90;83.50;;;;;;5075617;28;20021;-75
2023/01/25 03:47:11;;;;;;;52.35;18.67;;;2.90;83.40;;;;;;5059111;28;20028;-75
2023/01/25 03:49:37;;;;;;;56.83;18.17;;;2.80;83.60;;;;;;5059135;28;20041;-74
2023/01/25 03:52:03;;;;;;;55.00;18.35;;;2.80;84.10;;;;;;5075464;28;20036;-74
2023/01/25 03:54:29;;;;;;;53.28;18.73;;;2.80;84.40;;;;;;5075561;28;20081;-75
2023/01/25 03:56:54;;;;;;;65.18;20.02;;;2.80;84.40;;;;;;5093199;28;20037;-75
2023/01/25 03:59:20;;;;;;;53.50;18.63;;;2.80;84.40;;;;;;5059017;28;20054;-74
2023/01/25 04:01:45;;;;;;;57.70;19.92;;;2.80;84.50;;;;;;5075472;28;20050;-75
2023/01/25 04:04:11;;;;;;;55.67;18.35;;;2.90;84.50;;;;;;5093210;28;20028;-74
2023/01/25 04:06:37;;;;;;;57.15;19.80;;;2.90;84.70;;;;;;5075439;28;20470;-75
2023/01/25 04:09:02;;;;;;;57.53;19.77;;;2.80;84.10;;;;;;5058704;28;20021;-75
2023/01/25 04:11:28;;;;;;;56.60;19.02;;;2.80;84.50;;;;;;5075414;28;20024;-75
2023/01/25 04:13:54;;;;;;;58.28;20.35;;;2.80;84.70;;;;;;5058630;28;20025;-75
2023/01/25 04:16:19;;;;;;;48.63;17.73;;;2.90;84.50;;;;;;5075483;28;20017;-75
2023/01/25 04:18:45;;;;;;;51.17;17.77;;;2.90;84.70;;;;;;5058720;28;20466;-75
2023/01/25 04:21:10;;;;;;;47.92;17.13;;;3.00;84.90;;;;;;5075388;28;20024;-75
2023/01/25 04:23:36;;;;;;;57.78;18.48;;;3.00;84.80;;;;;;5058918;28;20051;-74
2023/01/25 04:26:05;;;;;;;55.88;19.95;;;3.00;84.90;;;;;;5075245;28;20070;-74
2023/01/25 04:28:31;;;;;;;58.20;19.77;;;3.00;85.70;;;;;;5093001;28;20044;-74
2023/01/25 04:30:57;;;;;;;62.33;21.40;;;3.00;84.30;;;;;;5075209;28;20040;-75
2023/01/25 04:33:24;;;;;;;52.85;18.05;;;2.90;84.20;;;;;;5058380;28;20049;-75
2023/01/25 04:35:49;;;;;;;56.95;19.27;;;2.80;84.30;;;;;;5075146;28;20078;-75
2023/01/25 04:38:15;;;;;;;61.67;20.48;;;2.90;84.40;;;;;;5092822;28;20020;-75
2023/01/25 04:40:42;;;;;;;61.08;20.30;;;2.90;84.60;;;;;;5058538;28;20416;-75
2023/01/25 04:43:07;;;;;;;57.75;19.52;;;2.90;84.90;;;;;;5075097;28;20017;-75
2023/01/25 04:45:35;;;;;;;59.22;20.27;;;2.90;84.80;;;;;;5092835;28;20103;-75
2023/01/25 04:48:03;;;;;;;65.10;19.80;;;2.90;84.30;;;;;;5074992;28;20017;-75
2023/01/25 04:50:29;;;;;;;58.97;19.13;;;2.90;84.50;;;;;;5092789;28;20025;-75
2023/01/25 04:52:55;;;;;;;57.63;19.10;;;2.90;84.40;;;;;;5092755;28;20025;-75
2023/01/25 04:55:21;;;;;;;60.92;20.88;;;2.90;84.50;;;;;;5075074;28;20029;-75
2023/01/25 04:57:50;;;;;;;50.80;18.02;;;2.80;84.40;;;;;;5058253;28;20047;-75
2023/01/25 05:00:16;;;;;;;61.00;20.13;;;2.80;84.50;;;;;;5075093;28;20029;-75
2023/01/25 05:02:42;;;;;;;63.85;21.58;;;2.70;84.70;;;;;;5075664;28;20025;-74
2023/01/25 05:05:08;;;;;;;54.25;18.20;;;2.50;85.10;;;;;;5045419;28;20023;-75
2023/01/25 05:07:34;;;;;;;60.28;19.90;;;2.40;85.70;;;;;;5078799;28;20028;-75
2023/01/25 05:09:59;;;;;;;53.38;19.10;;;2.30;85.60;;;;;;5061815;28;20108;-74
2023/01/25 05:12:25;;;;;;;56.63;20.85;;;2.30;85.90;;;;;;5061836;28;20107;-75
2023/01/25 05:14:51;;;;;;;53.88;20.52;;;2.30;85.70;;;;;;5078524;28;20033;-75
2023/01/25 05:17:16;;;;;;;57.88;20.02;;;2.40;85.90;;;;;;5078384;28;20024;-74
2023/01/25 05:19:42;;;;;;;62.20;19.55;;;2.40;85.80;;;;;;5061809;28;20048;-75
2023/01/25 05:22:13;;;;;;;57.17;18.30;;;2.40;85.50;;;;;;5061487;28;20035;-74
2023/01/25 05:24:40;;;;;;;52.55;18.00;;;2.40;85.50;;;;;;5078280;28;20017;-74
2023/01/25 05:27:07;;;;;;;56.42;19.00;;;2.40;85.60;;;;;;5096039;28;20050;-74
2023/01/25 05:29:38;;;;;;;55.65;19.40;;;2.40;85.70;;;;;;5045255;28;20088;-74
2023/01/25 05:32:09;;;;;;;58.88;19.33;;;2.40;85.60;;;;;;5078869;28;20032;-75
2023/01/25 05:34:35;;;;;;;54.05;18.77;;;2.40;85.10;;;;;;5096006;28;20024;-75
2023/01/25 05:37:02;;;;;;;56.13;18.08;;;2.30;84.90;;;;;;5095669;28;20033;-75
2023/01/25 05:39:28;;;;;;;56.10;19.58;;;2.20;85.20;;;;;;5095738;28;20049;-75
2023/01/25 05:41:53;;;;;;;58.78;20.52;;;2.20;85.10;;;;;;5077919;28;20023;-74
2023/01/25 05:44:19;;;;;;;51.20;20.25;;;2.10;86.60;;;;;;5077756;28;20036;-74
2023/01/25 05:46:45;;;;;;;56.67;20.25;;;2.00;85.80;;;;;;5061290;28;20035;-74
2023/01/25 05:49:11;;;;;;;51.85;17.77;;;2.00;86.00;;;;;;5077950;28;20036;-75
2023/01/25 05:51:37;;;;;;;54.90;18.27;;;2.00;86.20;;;;;;5095492;28;20130;-75
2023/01/25 05:54:07;;;;;;;55.63;18.75;;;2.00;86.00;;;;;;5077674;28;20043;-75
2023/01/25 05:56:33;;;;;;;58.47;21.15;;;2.10;85.90;;;;;;5077313;28;20049;-75
2023/01/25 05:59:00;;;;;;;62.75;20.38;;;2.20;85.80;;;;;;5061098;28;20020;-74
2023/01/25 06:01:26;;;;;;;55.92;19.42;;;2.20;85.50;;;;;;5077554;28;20021;-75
2023/01/25 06:03:52;;;;;;;59.58;20.45;;;2.20;85.50;;;;;;5095274;28;20025;-74
2023/01/25 06:06:18;;;;;;;61.35;19.38;;;2.20;85.40;;;;;;5077459;28;20013;-75
2023/01/25 06:08:43;;;;;;;64.22;20.52;;;2.20;85.20;;;;;;5077504;28;20058;-75
2023/01/25 06:11:14;;;;;;;64.68;20.52;;;2.20;85.50;;;;;;5094997;28;20028;-75
2023/01/25 06:13:41;;;;;;;76.85;23.20;;;2.30;85.50;;;;;;5094687;28;20029;-75
2023/01/25 06:16:07;;;;;;;71.72;22.00;;;2.30;85.30;;;;;;5076586;28;20149;-75
2023/01/25 06:18:34;;;;;;;64.97;20.95;;;2.30;85.40;;;;;;5060567;28;20039;-75
2023/01/25 06:21:00;;;;;;;58.05;19.83;;;2.30;85.40;;;;;;5094908;28;20025;-74
2023/01/25 06:23:27;;;;;;;69.82;21.65;;;2.40;85.60;;;;;;5077355;28;20025;-75
2023/01/25 06:25:56;;;;;;;79.60;24.80;;;2.50;85.50;;;;;;5094945;28;20028;-75
2023/01/25 06:28:21;;;;;;;64.95;22.38;;;2.50;85.10;;;;;;5094774;28;20111;-75
2023/01/25 06:30:47;;;;;;;78.15;23.13;;;2.40;85.00;;;;;;5077049;28;20024;-75
2023/01/25 06:33:13;;;;;;;65.43;21.45;;;2.50;84.80;;;;;;5094464;28;20079;-75
2023/01/25 06:35:39;;;;;;;69.80;22.23;;;2.50;85.00;;;;;;5060197;28;20033;-75
2023/01/25 06:38:05;;;;;;;72.53;23.35;;;2.50;85.10;;;;;;5076985;28;20028;-75
2023/01/25 06:40:31;;;;;;;65.78;22.27;;;2.60;85.10;;;;;;5094474;28;20012;-75
2023/01/25 06:43:10;;;;;;;71.30;22.20;;;2.60;84.90;;;;;;5060162;28;20445;-75
2023/01/25 06:45:37;;;;;;;64.90;22.05;;;2.60;84.50;;;;;;5094657;28;20017;-75
2023/01/25 06:48:03;;;;;;;66.57;21.67;;;2.60;84.40;;;;;;5094350;28;20025;-74
2023/01/25 06:50:29;;;;;;;66.75;22.42;;;2.60;84.50;;;;;;5076566;28;20021;-75
2023/01/25 06:52:55;;;;;;;69.68;22.33;;;2.60;84.30;;;;;;5094296;28;20092;-75
2023/01/25 06:55:21;;;;;;;71.95;23.27;;;2.60;84.50;;;;;;5076592;28;20039;-75
2023/01/25 06:57:47;;;;;;;76.95;23.80;;;2.60;84.10;;;;;;5076682;28;20020;-75
2023/01/25 07:00:15;;;;;;;71.65;23.63;;;2.60;84.50;;;;;;5076330;28;20021;-75
2023/01/25 07:02:41;;;;;;;72.65;24.05;;;2.60;84.60;;;;;;5076461;28;20029;-75
2023/01/25 07:05:07;;;;;;;78.38;24.08;;;2.70;84.70;;;;;;5076386;28;20054;-75
2023/01/25 07:07:33;;;;;;;83.63;23.95;;;2.70;84.50;;;;;;5059775;28;20052;-75
2023/01/25 07:10:00;;;;;;;77.25;24.35;;;2.70;84.40;;;;;;5093892;28;20033;-75
2023/01/25 07:12:28;;;;;;;75.90;23.33;;;2.70;84.00;;;;;;5076289;28;20025;-75
2023/01/25 07:14:54;;;;;;;80.22;24.25;;;2.70;84.30;;;;;;5094002;28;20099;-75
2023/01/25 07:17:19;;;;;;;83.07;25.00;;;2.70;84.30;;;;;;5076176;28;20029;-74
2023/01/25 07:19:45;;;;;;;72.60;23.02;;;2.70;84.60;;;;;;5076133;28;20028;-74
2023/01/25 07:22:11;;;;;;;82.82;23.88;;;2.70;84.60;;;;;;5075994;28;20084;-74
2023/01/25 07:24:37;;;;;;;82.72;24.17;;;2.70;84.80;;;;;;5093674;28;20035;-75
2023/01/25 07:27:02;;;;;;;77.75;23.60;;;2.70;84.30;;;;;;5075721;28;20024;-75
2023/01/25 07:29:29;;;;;;;77.93;23.73;;;2.70;84.50;;;;;;5059301;28;20479;-74
2023/01/25 07:31:54;;;;;;;73.05;24.50;;;2.60;84.10;;;;;;5059461;28;20028;-76
2023/01/25 07:34:20;;;;;;;79.53;23.20;;;2.60;84.30;;;;;;5059182;28;20104;-76
2023/01/25 07:36:46;;;;;;;69.60;22.15;;;2.70;84.30;;;;;;5075901;28;20080;-77
2023/01/25 07:39:12;;;;;;;87.72;24.80;;;2.70;84.30;;;;;;5059241;28;20033;-75
2023/01/25 07:41:38;;;;;;;80.03;23.35;;;2.60;83.50;;;;;;5059380;28;20036;-75
2023/01/25 07:44:04;;;;;;;84.57;24.77;;;2.60;83.70;;;;;;5093437;28;20050;-75
2023/01/25 07:46:29;;;;;;;77.63;25.35;;;2.60;83.80;;;;;;5059060;28;20020;-75
2023/01/25 07:48:57;;;;;;;82.55;23.17;;;2.40;84.00;;;;;;5059145;28;20548;-75
2023/01/25 07:51:25;;;;;;;70.78;23.17;;;2.30;84.30;;;;;;5075596;28;20020;-74
2023/01/25 07:53:52;;;;;;;83.70;25.38;;;2.30;84.70;;;;;;5093295;28;20021;-74
2023/01/25 07:56:20;;;;;;;64.43;21.20;;;2.20;85.00;;;;;;5093250;28;20020;-75
2023/01/25 07:58:46;;;;;;;81.18;24.30;;;2.20;85.50;;;;;;5059119;28;20030;-75
2023/01/25 08:01:14;;;;;;;79.10;24.10;;;2.20;85.40;;;;;;5075635;28;20020;-75
2023/01/25 08:03:40;;;;;;;81.95;25.02;;;2.20;85.20;;;;;;5093176;28;20025;-75
2023/01/25 08:06:06;;;;;;;74.55;23.77;;;2.30;85.20;;;;;;5075372;28;20031;-75
2023/01/25 08:08:34;;;;;;;83.70;23.58;;;2.30;85.30;;;;;;5075281;28;20024;-74
2023/01/25 08:11:07;;;;;;;83.07;25.20;;;2.40;85.50;;;;;;5093118;28;20092;-75
2023/01/25 08:13:32;;;;;;;80.95;23.85;;;2.40;85.30;;;;;;5075336;28;20029;-75
2023/01/25 08:15:58;;;;;;;80.68;23.42;;;2.50;85.10;;;;;;5075397;28;20028;-75
2023/01/25 08:18:24;;;;;;;80.13;22.95;;;2.50;84.80;;;;;;5075279;28;20486;-75
2023/01/25 08:20:50;;;;;;;86.60;24.73;;;2.50;84.90;;;;;;5075452;28;20027;-75
2023/01/25 08:23:16;;;;;;;82.97;25.00;;;2.50;84.90;;;;;;5075295;28;20071;-75
2023/01/25 08:25:41;;;;;;;69.50;21.05;;;2.50;84.60;;;;;;5092990;28;20024;-76
2023/01/25 08:28:07;;;;;;;78.80;24.13;;;2.50;84.90;;;;;;5092960;28;20051;-75
2023/01/25 08:30:33;;;;;;;83.18;23.77;;;2.50;85.00;;;;;;5075263;28;20051;-75
2023/01/25 08:33:00;;;;;;;81.80;25.27;;;2.60;85.00;;;;;;5092714;28;20053;-75
2023/01/25 08:35:26;;;;;;;79.65;24.20;;;2.60;84.70;;;;;;5075163;28;20074;-75
2023/01/25 08:37:52;;;;;;;81.60;25.40;;;2.60;84.50;;;;;;5075920;28;20037;-75
2023/01/25 08:40:44;;;;;;;84.57;25.60;;;2.50;84.20;;;;;;5079377;28;20032;-74
2023/01/25 08:43:14;;;;;;;73.22;24.00;;;2.40;84.30;;;;;;5097108;28;20024;-74
2023/01/25 08:45:56;;;;;;;76.93;23.50;;;2.40;84.70;;;;;;5096989;28;20032;-73
2023/01/25 08:48:22;;;;;;;;;;;2.40;84.70;;;;;;5062607;28;20097;-75
2023/01/25 08:50:48;;;;;;;73.35;20.98;;;2.40;84.80;;;;;;5096622;28;19908;-75
2023/01/25 08:53:14;;;;;;;76.55;23.77;;;2.50;84.80;;;;;;5078755;28;20036;-75
2023/01/25 08:55:41;;;;;;;81.93;24.38;;;2.50;84.80;;;;;;5078949;28;20041;-75
2023/01/25 08:58:09;;;;;;;87.03;23.85;;;2.50;84.70;;;;;;5078763;28;20029;-75
2023/01/25 09:00:37;;;;;;;77.88;24.17;;;2.50;84.90;;;;;;5078827;28;20025;-75
2023/01/25 09:03:07;;;;;;;79.95;24.42;;;2.50;84.70;;;;;;5078962;28;20025;-75
2023/01/25 09:05:34;;;;;;;72.75;23.35;;;2.60;84.80;;;;;;5096403;28;20016;-75
2023/01/25 09:08:01;;;;;;;77.25;23.30;;;2.60;84.60;;;;;;5078527;28;20062;-75
2023/01/25 09:10:26;;;;;;;79.65;24.33;;;2.60;84.60;;;;;;5078396;28;20021;-76
2023/01/25 09:12:52;;;;;;;84.07;24.92;;;2.70;84.60;;;;;;5078495;28;20084;-75
2023/01/25 09:15:18;;;;;;;75.38;23.00;;;2.70;84.50;;;;;;5096137;28;20084;-75
2023/01/25 09:17:44;;;;;;;76.43;23.45;;;2.70;84.50;;;;;;5096031;28;20025;-75
2023/01/25 09:20:10;;;;;;;76.60;22.67;;;2.70;84.30;;;;;;5078225;28;20040;-75
2023/01/25 09:22:35;;;;;;;79.75;23.77;;;2.70;84.30;;;;;;5096032;28;20021;-75
2023/01/25 09:25:01;;;;;;;83.95;26.05;;;2.80;84.30;;;;;;5078340;28;20123;-75
2023/01/25 09:27:27;;;;;;;73.22;24.30;;;2.80;84.10;;;;;;5095984;28;20021;-75
2023/01/25 09:29:52;;;;;;;83.47;23.58;;;2.80;84.10;;;;;;5078342;28;20054;-74
2023/01/25 09:32:18;;;;;;;83.07;23.35;;;2.80;83.80;;;;;;5095767;28;20025;-75
2023/01/25 09:34:43;;;;;;;81.80;23.75;;;2.70;83.90;;;;;;5061441;28;20041;-75
2023/01/25 09:37:10;;;;;;;87.25;24.65;;;2.70;84.30;;;;;;5077960;28;20036;-74
2023/01/25 09:39:36;;;;;;;83.70;24.10;;;2.70;84.20;;;;;;5095857;28;20035;-75
2023/01/25 09:42:40;;;;;;;90.32;24.90;;;2.80;84.10;;;;;;5077976;28;20017;-75
2023/01/25 09:45:23;;;;;;;71.18;22.00;;;2.70;84.10;;;;;;5040600;28;20092;-75
2023/01/25 09:48:27;;;;;;;81.90;22.85;;;2.70;85.00;;;;;;5077904;28;20032;-75
2023/01/25 09:51:05;;;;;;;79.05;23.55;;;2.80;84.20;;;;;;4978179;28;20098;-74
2023/01/25 09:53:39;;;;;;;80.43;25.27;;;2.70;83.90;;;;;;4994591;28;20039;-74
2023/01/25 09:56:16;;;;;;;73.53;23.73;;;2.60;83.40;;;;;;5046613;28;20052;-74
2023/01/25 09:58:46;;;;;;;86.93;25.58;;;2.50;83.90;;;;;;5077607;28;20036;-74
2023/01/25 10:01:21;;;;;;;81.80;23.27;;;2.40;84.10;;;;;;5095287;28;20024;-74
2023/01/25 10:03:48;;;;;;;79.68;24.50;;;2.40;84.60;;;;;;5095451;28;20027;-74
2023/01/25 10:06:18;;;;;;;78.47;23.50;;;2.40;84.50;;;;;;5095266;28;20021;-73
2023/01/25 10:09:14;;;;;;;76.35;24.25;;;2.50;84.60;;;;;;5095224;28;20036;-74
2023/01/25 10:11:40;;;;;;;79.28;24.00;;;2.50;84.80;;;;;;5035908;28;20036;-75
2023/01/25 10:14:16;;;;;;;75.30;23.65;;;2.50;84.40;;;;;;5095085;28;20025;-74
2023/01/25 10:16:53;;;;;;;84.78;25.70;;;2.40;84.30;;;;;;5095001;28;20031;-73
2023/01/25 10:19:27;;;;;;;77.18;23.40;;;2.40;84.90;;;;;;5077371;28;20096;-74
2023/01/25 10:22:07;;;;;;;86.25;24.13;;;2.50;84.90;;;;;;5095067;28;20021;-74
2023/01/25 10:24:57;;;;;;;80.35;23.35;;;2.50;84.80;;;;;;5094906;28;20114;-73
2023/01/25 10:27:57;;;;;;;82.18;23.23;;;2.60;84.70;;;;;;5094854;28;20035;-74
2023/01/25 10:30:33;;;;;;;89.10;23.27;;;2.60;84.60;;;;;;5094876;28;20040;-73
2023/01/25 10:33:12;;;;;;;73.13;22.25;;;2.60;84.50;;;;;;5094632;28;20072;-73
2023/01/25 10:35:43;;;;;;;78.15;23.35;;;2.60;84.70;;;;;;5076912;28;20389;-73
2023/01/25 10:38:29;;;;;;;72.55;23.55;;;2.60;84.70;;;;;;5077172;28;20020;-73
2023/01/25 10:41:18;;;;;;;83.28;22.55;;;2.60;84.70;;;;;;5094752;28;20536;-73
2023/01/25 10:44:20;;;;;;;76.88;22.95;;;2.70;84.60;;;;;;5094588;28;20017;-74
2023/01/25 10:53:38;;;;;;;71.50;22.08;;;2.60;83.70;;;;;;5094637;28;20036;-77
2023/01/25 10:56:09;;;;;;;74.78;25.02;;;2.50;83.90;;;;;;5093845;28;20146;-77
2023/01/25 10:58:42;;;;;;;79.90;22.75;;;2.40;84.10;;;;;;5094105;28;20028;-77
2023/01/25 11:01:11;;;;;;;;;;;2.40;84.60;;;;;;5093918;28;20024;-77
2023/01/25 11:03:43;;;;;;;73.35;22.63;;;2.40;84.80;;;;;;5094121;28;19926;-77
2023/01/25 11:06:10;;;;;;;68.75;23.25;;;2.40;85.00;;;;;;5076049;28;20044;-77
2023/01/25 11:08:41;;;;;;;78.18;22.67;;;2.40;85.20;;;;;;5092413;28;20048;-77
2023/01/25 11:11:32;;;;;;;76.82;23.88;;;2.50;85.00;;;;;;5092544;28;20016;-77
2023/01/25 11:13:58;;;;;;;74.40;24.08;;;2.40;84.70;;;;;;5092476;28;20020;-77
2023/01/25 11:16:23;;;;;;;82.80;24.50;;;2.30;84.60;;;;;;5092530;28;20059;-77
2023/01/25 11:18:54;;;;;;;90.20;24.25;;;2.30;84.70;;;;;;5093536;28;20039;-77
2023/01/25 11:21:24;;;;;;;67.13;21.92;;;2.30;84.90;;;;;;5093807;28;20081;-77
2023/01/25 11:24:04;;;;;;;80.10;23.10;;;2.30;85.30;;;;;;5093773;28;20025;-77
2023/01/25 11:26:31;;;;;;;75.88;22.13;;;2.30;85.30;;;;;;5076032;28;20127;-77
2023/01/25 11:29:10;;;;;;;79.70;23.63;;;2.40;84.90;;;;;;5093732;28;20021;-77
2023/01/25 11:31:35;;;;;;;83.13;23.13;;;2.40;84.80;;;;;;5093653;28;20032;-76
2023/01/25 11:34:01;;;;;;;77.72;23.35;;;2.30;84.80;;;;;;5093420;28;20051;-75
2023/01/25 11:36:45;;;;;;;78.55;23.55;;;2.20;84.90;;;;;;5093616;28;20054;-77
2023/01/25 11:39:38;;;;;;;81.70;23.73;;;2.20;85.30;;;;;;5093636;28;20039;-77
2023/01/25 11:42:22;;;;;;;70.88;22.23;;;2.30;85.60;;;;;;5093575;28;20044;-77
2023/01/25 11:45:09;;;;;;;82.30;22.45;;;2.40;85.70;;;;;;5075813;28;20016;-77
2023/01/25 11:47:58;;;;;;;83.07;23.75;;;2.40;85.70;;;;;;5093518;28;20087;-77
2023/01/25 11:50:37;;;;;;;78.30;23.85;;;2.40;85.60;;;;;;5044594;28;20043;-77
2023/01/25 11:53:10;;;;;;;73.68;22.85;;;2.50;85.70;;;;;;5075704;28;20091;-77
2023/01/25 11:55:38;;;;;;;74.57;23.52;;;2.40;85.80;;;;;;5093572;28;20017;-77
2023/01/25 11:58:36;;;;;;;76.53;23.55;;;2.30;85.60;;;;;;5075512;28;20030;-77
2023/01/25 12:01:39;;;;;;;72.55;21.33;;;2.30;86.30;;;;;;5075546;28;20055;-77
2023/01/25 12:04:31;;;;;;;66.78;23.02;;;2.20;86.80;;;;;;5093468;28;20024;-77
2023/01/25 12:07:02;;;;;;;63.28;20.95;;;2.10;86.40;;;;;;5093415;28;20028;-77
2023/01/25 12:09:51;;;;;;;78.40;23.90;;;2.10;86.50;;;;;;5093156;28;20024;-77
2023/01/25 12:12:35;;;;;;;72.95;21.80;;;2.00;86.60;;;;;;5095035;28;20031;-77
2023/01/25 12:15:19;;;;;;;75.35;23.10;;;2.10;87.20;;;;;;5079705;28;20099;-77
2023/01/25 12:17:52;;;;;;;62.95;19.45;;;2.00;87.30;;;;;;5097251;28;20092;-77
2023/01/25 12:20:23;;;;;;;;;;;1.90;87.60;;;;;;5097785;28;20040;-77
2023/01/25 12:23:13;;;;;;;82.03;22.83;;;1.90;88.30;;;;;;5097275;28;19904;-77
2023/01/25 12:25:57;;;;;;;62.33;19.80;;;1.90;87.80;;;;;;5097414;28;20024;-77
2023/01/25 12:28:38;;;;;;;70.78;22.08;;;1.90;87.90;;;;;;5097158;28;20055;-78
2023/01/25 12:31:16;;;;;;;84.40;22.42;;;1.90;88.00;;;;;;5079363;28;20024;-77
2023/01/25 12:34:28;;;;;;;55.20;18.05;;;1.90;88.00;;;;;;5096914;28;20044;-77
2023/01/25 12:36:55;;;;;;;70.25;21.48;;;1.80;88.10;;;;;;5090900;28;20058;-77
2023/01/25 12:39:28;;;;;;;77.95;22.50;;;1.80;88.20;;;;;;5097030;28;20055;-77
2023/01/25 12:42:17;;;;;;;72.20;21.83;;;1.80;88.30;;;;;;5096946;28;20048;-77
2023/01/25 12:44:45;;;;;;;62.50;18.05;;;1.90;88.10;;;;;;5096863;28;20020;-77
2023/01/25 12:47:31;;;;;;;69.85;19.67;;;1.80;87.70;;;;;;5079013;28;20024;-77
2023/01/25 12:50:16;;;;;;;70.45;23.27;;;1.80;88.30;;;;;;5096786;28;20032;-77
2023/01/25 12:52:48;;;;;;;61.03;20.10;;;1.70;87.80;;;;;;5078974;28;20036;-76
2023/01/25 12:55:16;;;;;;;62.78;20.95;;;1.60;89.10;;;;;;5096771;28;20025;-76
2023/01/25 12:58:02;;;;;;;66.53;20.20;;;1.50;88.20;;;;;;5096473;28;20100;-77